createdAt,value
2022-12-13T00:02:10.073Z,11.03
2022-12-13T00:04:44.029Z,10.90
2022-12-13T00:07:18.087Z,11.23
2022-12-13T00:09:53.255Z,10.27
2022-12-13T00:12:30.013Z,10.43
2022-12-13T00:15:03.764Z,10.10
2022-12-13T00:17:37.447Z,10.20
2022-12-13T00:20:12.161Z,10.60
2022-12-13T00:22:46.828Z,10.30
2022-12-13T00:25:22.737Z,9.80
2022-12-13T00:27:56.700Z,11.07
2022-12-13T00:30:34.178Z,10.40
2022-12-13T00:33:07.873Z,10.40
2022-12-13T00:35:43.192Z,10.80
2022-12-13T00:38:16.801Z,10.77
2022-12-13T00:40:52.585Z,9.67
2022-12-13T00:43:26.273Z,10.50
2022-12-13T00:46:00.220Z,10.60
2022-12-13T00:48:36.238Z,11.20
2022-12-13T00:51:20.621Z,10.13
2022-12-13T00:53:55.704Z,10.37
2022-12-13T00:56:34.847Z,10.53
2022-12-13T00:59:15.433Z,10.03
2022-12-13T01:01:49.455Z,9.83
2022-12-13T01:04:23.104Z,10.03
2022-12-13T01:07:02.126Z,10.87
2022-12-13T01:09:35.823Z,11.03
2022-12-13T01:12:12.957Z,10.00
2022-12-13T01:14:48.790Z,9.77
2022-12-13T01:17:25.265Z,10.53
2022-12-13T01:19:59.024Z,9.77
2022-12-13T01:22:32.504Z,9.63
2022-12-13T01:25:07.435Z,9.80
2022-12-13T01:27:43.824Z,9.43
2022-12-13T01:30:21.427Z,10.63
2022-12-13T01:32:55.539Z,9.37
2022-12-13T01:35:29.260Z,10.07
2022-12-13T01:38:03.074Z,11.07
2022-12-13T01:40:59.039Z,9.33
2022-12-13T01:44:08.420Z,9.40
2022-12-13T01:46:41.950Z,9.13
2022-12-13T01:49:20.942Z,9.50
2022-12-13T01:52:07.942Z,9.97
2022-12-13T01:54:49.451Z,10.70
2022-12-13T01:57:25.394Z,10.20
2022-12-13T02:00:05.189Z,10.60
2022-12-13T02:02:41.573Z,9.90
2022-12-13T02:05:25.219Z,10.17
2022-12-13T02:08:03.792Z,9.93
2022-12-13T02:10:38.096Z,9.87
2022-12-13T02:13:12.458Z,9.97
2022-12-13T02:16:01.388Z,10.27
2022-12-13T02:19:01.516Z,10.27
2022-12-13T02:21:49.110Z,9.70
2022-12-13T02:25:06.043Z,9.37
2022-12-13T02:28:03.713Z,9.77
2022-12-13T02:31:10.262Z,8.90
2022-12-13T02:34:03.200Z,8.73
2022-12-13T02:36:52.749Z,10.40
2022-12-13T02:39:35.277Z,10.73
2022-12-13T02:42:21.696Z,9.70
2022-12-13T02:45:06.765Z,10.20
2022-12-13T02:47:46.779Z,8.83
2022-12-13T02:50:22.639Z,10.23
2022-12-13T02:53:01.284Z,11.23
2022-12-13T02:55:37.961Z,9.53
2022-12-13T02:58:15.269Z,9.23
2022-12-13T03:01:02.870Z,10.17
2022-12-13T03:03:53.809Z,9.27
2022-12-13T03:06:45.904Z,8.83
2022-12-13T03:09:38.441Z,9.60
2022-12-13T03:12:49.507Z,8.77
2022-12-13T03:15:38.228Z,8.70
2022-12-13T03:18:16.723Z,8.37
2022-12-13T03:20:57.414Z,9.77
2022-12-13T03:23:31.673Z,8.50
2022-12-13T03:26:11.023Z,8.80
2022-12-13T03:28:52.987Z,8.60
2022-12-13T03:31:27.923Z,8.83
2022-12-13T03:34:01.635Z,9.23
2022-12-13T03:36:36.665Z,9.93
2022-12-13T03:39:10.766Z,9.23
2022-12-13T03:41:53.861Z,9.13
2022-12-13T03:44:31.470Z,9.43
2022-12-13T03:47:07.982Z,9.00
2022-12-13T03:49:41.828Z,9.57
2022-12-13T03:52:16.824Z,9.77
2022-12-13T03:54:50.458Z,9.13
2022-12-13T03:57:25.960Z,9.33
2022-12-13T03:59:59.763Z,10.20
2022-12-13T04:02:33.757Z,8.77
2022-12-13T04:05:09.737Z,10.00
2022-12-13T04:07:48.745Z,9.43
2022-12-13T04:10:25.392Z,9.50
2022-12-13T04:13:19.226Z,8.67
2022-12-13T04:15:53.777Z,9.37
2022-12-13T04:18:27.974Z,8.70
2022-12-13T04:21:05.439Z,9.57
2022-12-13T04:23:50.169Z,9.27
2022-12-13T04:26:27.476Z,9.30
2022-12-13T04:29:01.291Z,8.63
2022-12-13T04:31:35.971Z,8.90
2022-12-13T04:34:11.542Z,9.77
2022-12-13T04:36:45.228Z,9.60
2022-12-13T04:39:23.763Z,9.77
2022-12-13T04:41:57.637Z,9.47
2022-12-13T04:44:36.568Z,9.20
2022-12-13T04:47:11.538Z,9.27
2022-12-13T04:49:45.628Z,9.80
2022-12-13T04:52:23.152Z,8.97
2022-12-13T04:54:58.162Z,8.60
2022-12-13T04:57:33.323Z,9.17
2022-12-13T05:00:23.521Z,9.40
2022-12-13T05:02:57.260Z,8.40
2022-12-13T05:05:31.121Z,8.47
2022-12-13T05:08:06.542Z,9.60
2022-12-13T05:10:42.328Z,9.70
2022-12-13T05:13:17.696Z,9.07
2022-12-13T05:16:07.076Z,9.07
2022-12-13T05:18:41.998Z,9.20
2022-12-13T05:21:15.968Z,8.63
2022-12-13T05:23:49.893Z,9.47
2022-12-13T05:26:25.530Z,9.43
2022-12-13T05:29:00.264Z,9.07
2022-12-13T05:31:34.034Z,8.70
2022-12-13T05:34:07.959Z,9.30
2022-12-13T05:36:45.165Z,9.30
2022-12-13T05:39:28.604Z,9.80
2022-12-13T05:42:07.405Z,9.57
2022-12-13T05:44:44.910Z,9.33
2022-12-13T05:47:18.590Z,10.07
2022-12-13T05:49:52.512Z,9.43
2022-12-13T05:52:30.825Z,9.70
2022-12-13T05:55:08.332Z,10.13
2022-12-13T05:57:50.061Z,8.57
2022-12-13T06:00:28.845Z,9.23
2022-12-13T06:03:04.537Z,10.20
2022-12-13T06:05:39.096Z,8.53
2022-12-13T06:08:25.022Z,9.27
2022-12-13T06:11:10.376Z,9.90
2022-12-13T06:13:52.164Z,8.80
2022-12-13T06:16:38.481Z,8.50
2022-12-13T06:19:15.258Z,10.50
2022-12-13T06:21:48.937Z,9.87
2022-12-13T06:24:24.817Z,11.23
2022-12-13T06:27:00.151Z,11.30
2022-12-13T06:29:35.510Z,9.33
2022-12-13T06:32:09.086Z,10.37
2022-12-13T06:34:43.481Z,11.07
2022-12-13T06:37:23.547Z,12.10
2022-12-13T06:39:57.767Z,11.77
2022-12-13T06:42:31.758Z,11.63
2022-12-13T06:45:08.342Z,9.80
2022-12-13T06:47:41.924Z,10.33
2022-12-13T06:50:15.831Z,10.63
2022-12-13T06:52:49.542Z,10.57
2022-12-13T06:55:24.418Z,9.60
2022-12-13T06:58:00.240Z,9.67
2022-12-13T07:00:44.072Z,10.27
2022-12-13T07:03:23.046Z,9.33
2022-12-13T07:05:58.636Z,10.07
2022-12-13T07:08:32.391Z,9.67
2022-12-13T07:11:09.749Z,10.20
2022-12-13T07:13:44.179Z,9.23
2022-12-13T07:16:23.201Z,8.27
2022-12-13T07:19:01.259Z,8.80
2022-12-13T07:21:39.938Z,10.07
2022-12-13T07:24:13.978Z,9.67
2022-12-13T07:26:48.042Z,9.37
2022-12-13T07:29:25.386Z,9.00
2022-12-13T07:32:03.716Z,8.67
2022-12-13T07:34:38.602Z,9.00
2022-12-13T07:37:30.377Z,9.20
2022-12-13T07:40:05.383Z,8.33
2022-12-13T07:42:45.626Z,9.00
2022-12-13T07:45:20.021Z,8.17
2022-12-13T07:47:55.148Z,8.40
2022-12-13T07:50:28.808Z,9.50
2022-12-13T07:53:12.501Z,9.07
2022-12-13T07:55:46.317Z,8.93
2022-12-13T07:58:20.405Z,9.30
2022-12-13T08:00:54.976Z,9.10
2022-12-13T08:03:40.849Z,10.17
2022-12-13T08:06:15.946Z,10.23
2022-12-13T08:08:51.275Z,8.87
2022-12-13T08:11:25.648Z,8.80
2022-12-13T08:13:59.323Z,10.20
2022-12-13T08:16:33.284Z,9.73
2022-12-13T08:19:12.590Z,10.20
2022-12-13T08:21:55.704Z,10.47
2022-12-13T08:24:34.327Z,10.20
2022-12-13T08:27:09.495Z,10.87
2022-12-13T08:29:43.371Z,10.67
2022-12-13T08:32:17.328Z,10.07
2022-12-13T08:34:52.503Z,11.03
2022-12-13T08:37:29.450Z,11.37
2022-12-13T08:40:04.330Z,11.77
2022-12-13T08:42:41.771Z,11.53
2022-12-13T08:45:16.576Z,11.67
2022-12-13T08:47:50.144Z,11.97
2022-12-13T08:50:25.492Z,12.80
2022-12-13T08:52:59.781Z,12.63
2022-12-13T08:55:33.817Z,14.00
2022-12-13T08:58:08.844Z,13.60
2022-12-13T09:00:43.064Z,13.93
2022-12-13T09:03:16.835Z,13.93
2022-12-13T09:05:52.439Z,13.53
2022-12-13T09:08:26.372Z,14.27
2022-12-13T09:11:20.823Z,14.00
2022-12-13T09:14:13.891Z,14.77
2022-12-13T09:16:50.628Z,14.80
2022-12-13T09:19:37.047Z,15.27
2022-12-13T09:22:14.468Z,15.20
2022-12-13T09:24:49.959Z,14.63
2022-12-13T09:27:28.512Z,14.77
2022-12-13T09:30:05.948Z,14.87
2022-12-13T09:32:39.567Z,13.37
2022-12-13T09:35:15.372Z,13.73
2022-12-13T09:37:50.615Z,14.57
2022-12-13T09:40:37.946Z,13.43
2022-12-13T09:43:21.950Z,13.57
2022-12-13T09:46:01.341Z,13.47
2022-12-13T09:48:37.337Z,13.00
2022-12-13T09:51:18.309Z,13.17
2022-12-13T09:54:04.038Z,13.50
2022-12-13T09:56:40.861Z,12.23
2022-12-13T09:59:15.923Z,12.60
2022-12-13T10:01:49.935Z,10.23
2022-12-13T10:04:23.692Z,10.53
2022-12-13T10:06:59.837Z,10.63
2022-12-13T10:09:35.849Z,10.13
2022-12-13T10:12:16.575Z,10.33
2022-12-13T10:14:56.051Z,10.53
2022-12-13T10:17:41.139Z,11.03
2022-12-13T10:20:20.104Z,10.87
2022-12-13T10:23:29.913Z,9.57
2022-12-13T10:26:03.315Z,9.37
2022-12-13T10:28:41.964Z,8.73
2022-12-13T10:31:20.877Z,8.63
2022-12-13T10:33:59.464Z,8.80
2022-12-13T10:36:38.582Z,7.90
2022-12-13T10:39:19.882Z,8.00
2022-12-13T10:42:08.141Z,7.73
2022-12-13T10:44:44.470Z,7.53
2022-12-13T10:47:30.287Z,8.27
2022-12-13T10:50:06.318Z,7.67
2022-12-13T10:52:48.049Z,8.57
2022-12-13T10:55:30.785Z,7.97
2022-12-13T10:58:09.674Z,8.03
2022-12-13T11:00:46.986Z,8.40
2022-12-13T11:03:37.032Z,7.30
2022-12-13T11:06:19.049Z,7.73
2022-12-13T11:08:55.198Z,7.47
2022-12-13T11:11:35.248Z,7.50
2022-12-13T11:14:20.408Z,7.83
2022-12-13T11:17:23.859Z,7.67
2022-12-13T11:20:01.822Z,7.97
2022-12-13T11:22:39.274Z,7.87
2022-12-13T11:25:27.007Z,7.73
2022-12-13T11:28:26.787Z,7.87
2022-12-13T11:31:20.047Z,7.27
2022-12-13T11:34:12.426Z,7.93
2022-12-13T11:37:02.518Z,7.77
2022-12-13T11:39:49.687Z,7.47
2022-12-13T11:42:37.986Z,7.00
2022-12-13T11:45:23.744Z,6.93
2022-12-13T11:48:07.637Z,6.50
2022-12-13T11:50:57.333Z,7.03
2022-12-13T11:53:56.526Z,6.90
2022-12-13T11:56:41.697Z,7.23
2022-12-13T11:59:39.737Z,7.63
2022-12-13T12:02:30.793Z,8.10
2022-12-13T12:05:28.508Z,7.27
2022-12-13T12:11:20.699Z,6.73
2022-12-13T12:14:01.013Z,6.27
2022-12-13T12:16:44.185Z,6.87
2022-12-13T12:19:22.131Z,6.27
2022-12-13T12:22:17.887Z,6.90
2022-12-13T12:25:18.455Z,6.70
2022-12-13T12:28:06.499Z,7.30
2022-12-13T12:30:57.584Z,7.40
2022-12-13T12:33:45.697Z,7.53
2022-12-13T12:36:46.774Z,6.20
2022-12-13T12:40:02.766Z,7.07
2022-12-13T12:43:14.022Z,6.93
2022-12-13T12:46:04.746Z,7.00
2022-12-13T12:49:17.038Z,6.97
2022-12-13T12:52:15.233Z,6.23
2022-12-13T12:55:09.341Z,5.77
2022-12-13T12:58:01.954Z,7.07
2022-12-13T13:00:50.003Z,6.87
2022-12-13T13:03:30.147Z,6.93
2022-12-13T13:06:18.205Z,6.90
2022-12-13T13:08:59.470Z,6.97
2022-12-13T13:11:43.116Z,7.53
2022-12-13T13:14:36.788Z,6.90
2022-12-13T13:17:50.637Z,6.73
2022-12-13T13:20:26.273Z,6.73
2022-12-13T13:26:23.320Z,6.60
2022-12-13T13:28:58.287Z,6.90
2022-12-13T13:32:28.366Z,8.03
2022-12-13T13:35:54.028Z,9.03
2022-12-13T13:38:55.768Z,7.90
2022-12-13T13:42:09.525Z,8.43
2022-12-13T13:45:22.477Z,8.97
2022-12-13T13:48:24.417Z,9.00
2022-12-13T13:52:24.529Z,8.37
2022-12-13T13:55:43.654Z,10.07
2022-12-13T13:59:23.938Z,9.70
2022-12-13T14:03:06.522Z,9.10
2022-12-13T14:06:51.524Z,9.30
2022-12-13T14:09:54.355Z,8.97
2022-12-13T14:13:40.012Z,8.33
2022-12-13T14:17:12.350Z,9.43
2022-12-13T14:20:47.936Z,9.40
2022-12-13T14:23:41.901Z,9.40
2022-12-13T14:26:36.138Z,9.33
2022-12-13T14:29:16.793Z,8.90
2022-12-13T14:31:51.119Z,8.97
2022-12-13T14:34:28.863Z,9.17
2022-12-13T14:37:23.853Z,9.50
2022-12-13T14:40:26.915Z,8.03
2022-12-13T14:43:02.140Z,8.13
2022-12-13T14:45:41.847Z,8.00
2022-12-13T14:48:29.519Z,8.37
2022-12-13T14:51:04.872Z,8.97
2022-12-13T14:53:42.254Z,8.70
2022-12-13T14:56:28.575Z,7.83
2022-12-13T14:59:15.980Z,8.23
2022-12-13T15:01:59.203Z,7.67
2022-12-13T15:04:45.180Z,7.63
2022-12-13T15:07:28.503Z,7.80
2022-12-13T15:10:23.228Z,8.33
2022-12-13T15:13:01.542Z,7.90
2022-12-13T15:15:40.485Z,7.97
2022-12-13T15:18:20.664Z,8.03
2022-12-13T15:20:57.925Z,8.80
2022-12-13T15:23:49.685Z,9.07
2022-12-13T15:26:29.224Z,8.40
2022-12-13T15:29:12.399Z,7.63
2022-12-13T15:31:50.221Z,8.53
2022-12-13T15:34:39.417Z,8.43
2022-12-13T15:37:28.923Z,7.67
2022-12-13T15:40:11.047Z,8.40
2022-12-13T15:42:51.955Z,7.73
2022-12-13T15:45:36.635Z,8.27
2022-12-13T15:48:29.350Z,8.17
2022-12-13T15:51:11.041Z,8.40
2022-12-13T15:54:08.716Z,8.43
2022-12-13T15:57:17.644Z,8.00
2022-12-13T16:00:30.715Z,8.17
2022-12-13T16:03:14.671Z,7.70
2022-12-13T16:05:57.360Z,8.17
2022-12-13T16:08:36.582Z,7.87
2022-12-13T16:11:12.588Z,8.67
2022-12-13T16:13:47.816Z,8.60
2022-12-13T16:16:37.245Z,7.93
2022-12-13T16:19:20.150Z,8.93
2022-12-13T16:21:54.634Z,7.73
2022-12-13T16:24:29.027Z,8.93
2022-12-13T16:27:08.603Z,8.77
2022-12-13T16:29:44.042Z,9.40
2022-12-13T16:32:22.600Z,9.17
2022-12-13T16:34:57.119Z,8.77
2022-12-13T16:37:31.077Z,7.30
2022-12-13T16:40:26.089Z,8.00
2022-12-13T16:43:07.290Z,9.10
2022-12-13T16:45:50.814Z,8.60
2022-12-13T16:48:28.861Z,10.07
2022-12-13T16:51:05.679Z,8.67
2022-12-13T16:53:46.039Z,9.80
2022-12-13T16:56:21.874Z,10.60
2022-12-13T16:58:56.213Z,9.33
2022-12-13T17:01:33.271Z,10.17
2022-12-13T17:04:16.304Z,10.00
2022-12-13T17:06:56.359Z,8.97
2022-12-13T17:09:30.557Z,10.20
2022-12-13T17:12:10.653Z,9.57
2022-12-13T17:14:47.046Z,10.03
2022-12-13T17:17:21.574Z,9.83
2022-12-13T17:20:05.518Z,10.00
2022-12-13T17:22:42.658Z,9.67
2022-12-13T17:25:17.078Z,9.47
2022-12-13T17:27:53.904Z,9.83
2022-12-13T17:30:39.673Z,9.53
2022-12-13T17:33:14.611Z,10.13
2022-12-13T17:35:50.776Z,9.70
2022-12-13T17:38:25.080Z,10.67
2022-12-13T17:41:00.620Z,11.87
2022-12-13T17:43:37.131Z,11.63
2022-12-13T17:46:17.134Z,11.23
2022-12-13T17:48:52.377Z,10.50
2022-12-13T17:51:30.041Z,10.57
2022-12-13T17:54:04.666Z,10.70
2022-12-13T17:56:40.538Z,10.67
2022-12-13T17:59:25.712Z,9.90
2022-12-13T18:01:59.427Z,10.33
2022-12-13T18:04:34.351Z,11.07
2022-12-13T18:07:13.583Z,10.73
2022-12-13T18:09:50.117Z,10.33
2022-12-13T18:12:23.841Z,9.83
2022-12-13T18:15:05.033Z,9.67
2022-12-13T18:18:09.528Z,9.97
2022-12-13T18:20:36.735Z,10.70
2022-12-13T18:23:13.460Z,10.17
2022-12-13T18:25:51.068Z,9.40
2022-12-13T18:28:26.892Z,10.23
2022-12-13T18:31:09.142Z,10.30
2022-12-13T18:33:47.582Z,9.97
2022-12-13T18:36:23.479Z,10.07
2022-12-13T18:39:05.749Z,10.17
2022-12-13T18:41:40.195Z,10.30
2022-12-13T18:44:18.640Z,9.93
2022-12-13T18:46:53.407Z,10.40
2022-12-13T18:49:31.355Z,10.10
2022-12-13T18:52:05.347Z,10.83
2022-12-13T18:54:41.096Z,11.27
2022-12-13T18:57:23.464Z,11.57
2022-12-13T18:59:58.122Z,10.93
2022-12-13T19:02:49.832Z,10.77
2022-12-13T19:05:27.103Z,10.63
2022-12-13T19:08:08.897Z,9.90
2022-12-13T19:10:49.357Z,10.40
2022-12-13T19:13:25.697Z,9.87
2022-12-13T19:16:07.069Z,9.90
2022-12-13T19:18:52.174Z,10.13
2022-12-13T19:21:28.614Z,9.97
2022-12-13T19:24:11.492Z,9.53
2022-12-13T19:26:47.955Z,9.73
2022-12-13T19:29:22.211Z,8.90
2022-12-13T19:31:56.033Z,9.70
2022-12-13T19:34:31.294Z,10.37
2022-12-13T19:37:08.602Z,9.93
2022-12-13T19:39:42.549Z,10.43
2022-12-13T19:42:18.163Z,10.37
2022-12-13T19:44:53.928Z,10.47
2022-12-13T19:47:28.982Z,11.87
2022-12-13T19:50:02.610Z,11.23
2022-12-13T19:52:36.175Z,10.77
2022-12-13T19:55:10.969Z,11.97
2022-12-13T19:57:49.487Z,11.57
2022-12-13T20:00:23.472Z,11.70
2022-12-13T20:02:59.242Z,11.33
2022-12-13T20:05:33.642Z,11.30
2022-12-13T20:08:15.267Z,11.47
2022-12-13T20:11:16.057Z,10.90
2022-12-13T20:14:05.114Z,9.97
2022-12-13T20:16:39.082Z,10.57
2022-12-13T20:19:16.694Z,10.67
2022-12-13T20:21:56.511Z,10.87
2022-12-13T20:24:33.486Z,11.37
2022-12-13T20:27:06.988Z,11.70
2022-12-13T20:29:43.089Z,10.73
2022-12-13T20:32:23.945Z,11.03
2022-12-13T20:35:02.143Z,11.73
2022-12-13T20:37:50.666Z,11.63
2022-12-13T20:40:26.472Z,10.43
2022-12-13T20:43:01.119Z,11.23
2022-12-13T20:45:36.242Z,11.20
2022-12-13T20:48:17.467Z,11.70
2022-12-13T20:51:02.329Z,11.27
2022-12-13T20:53:47.156Z,10.83
2022-12-13T20:56:24.380Z,10.70
2022-12-13T20:58:58.462Z,11.33
2022-12-13T21:01:39.097Z,11.40
2022-12-13T21:04:13.534Z,11.77
2022-12-13T21:06:47.322Z,12.20
2022-12-13T21:09:22.351Z,13.03
2022-12-13T21:12:04.474Z,12.77
2022-12-13T21:14:38.636Z,11.73
2022-12-13T21:17:13.723Z,12.70
2022-12-13T21:19:52.134Z,13.03
2022-12-13T21:22:26.673Z,12.57
2022-12-13T21:25:00.585Z,12.57
2022-12-13T21:27:34.361Z,12.57
2022-12-13T21:30:10.436Z,11.77
2022-12-13T21:32:49.839Z,13.07
2022-12-13T21:35:26.753Z,12.93
2022-12-13T21:38:11.255Z,11.80
2022-12-13T21:40:49.349Z,11.93
2022-12-13T21:43:37.111Z,10.90
2022-12-13T21:46:15.925Z,11.47
2022-12-13T21:48:54.436Z,11.70
2022-12-13T21:51:31.771Z,10.80
2022-12-13T21:54:06.076Z,11.73
2022-12-13T21:57:00.408Z,10.53
2022-12-13T21:59:41.284Z,10.57
2022-12-13T22:02:19.024Z,10.70
2022-12-13T22:05:00.479Z,11.47
2022-12-13T22:07:37.051Z,10.97
2022-12-13T22:10:18.008Z,10.67
2022-12-13T22:12:52.531Z,11.17
2022-12-13T22:15:28.287Z,10.57
2022-12-13T22:18:02.699Z,10.87
2022-12-13T22:20:38.187Z,11.50
2022-12-13T22:23:12.660Z,10.83
2022-12-13T22:25:46.588Z,10.70
2022-12-13T22:28:23.008Z,9.83
2022-12-13T22:30:58.010Z,10.60
2022-12-13T22:33:32.288Z,10.87
2022-12-13T22:36:11.527Z,10.23
2022-12-13T22:38:53.530Z,10.90
2022-12-13T22:41:29.596Z,10.77
2022-12-13T22:44:05.588Z,9.70
2022-12-13T22:46:51.729Z,10.03
2022-12-13T22:49:28.414Z,10.07
2022-12-13T22:52:03.858Z,11.13
2022-12-13T22:54:37.739Z,10.33
2022-12-13T22:57:13.612Z,10.53
2022-12-13T22:59:47.736Z,10.43
2022-12-13T23:02:24.117Z,10.40
2022-12-13T23:04:57.978Z,10.57
2022-12-13T23:07:34.545Z,10.50
2022-12-13T23:10:38.593Z,10.60
2022-12-13T23:13:15.227Z,10.57
2022-12-13T23:15:53.749Z,10.93
2022-12-13T23:18:28.097Z,9.87
2022-12-13T23:21:02.110Z,10.10
2022-12-13T23:23:37.421Z,9.57
2022-12-13T23:26:14.915Z,9.80
2022-12-13T23:28:51.498Z,9.43
2022-12-13T23:31:30.807Z,9.47
2022-12-13T23:34:05.128Z,8.90
2022-12-13T23:36:39.368Z,9.93
2022-12-13T23:39:14.618Z,9.43
2022-12-13T23:41:48.392Z,9.47
2022-12-13T23:44:24.035Z,9.63
2022-12-13T23:46:59.076Z,9.27
2022-12-13T23:49:36.180Z,9.10
2022-12-13T23:52:12.859Z,9.13
2022-12-13T23:54:47.962Z,8.40
2022-12-13T23:57:21.452Z,9.00
2022-12-13T23:59:58.826Z,8.40
